Terminal Aerodrome Forecast
Issued by NWS Sterling, VA

Current Version | Previous Version | Text Only | Print | Product List | Glossary Off
Versions: 1 2 3 4 5 6 7 8 9 10 11 12 13 14 15 16 17 18 19 20 21 22 23 24 25 26 27

774
FTUS41 KLWX 252057 AAA
TAFDCA
TAF AMD
KDCA 252057Z 2521/2618 32009KT P6SM FEW040 BKN060
     FM260100 01006KT P6SM SCT045
     FM261100 05005KT P6SM SCT250
     FM261400 08005KT P6SM BKN045=

USA.gov is the U.S. government's official web portal to all federal, state and local government web resources and services.